Time;durP1;ratioP1;P1;durP2;ratioP2;P2;SDS_P1;SDS_P2;PMS_P1;PMS_P2;Temp;Humidity;BMP_temperature;BMP_pressure;BME280_temperature;BME280_humidity;BME280_pressure;Samples;Min_cycle;Max_cycle;Signal;HPM_P1;HPM_P2
2022/08/16 00:02:03;;;;;;;19.17;17.97;;;16.10;99.90;;;;;;5040424;28;20644;-83
2022/08/16 00:04:29;;;;;;;23.73;21.93;;;16.10;99.90;;;;;;5048627;28;20199;-83
2022/08/16 00:06:55;;;;;;;25.37;23.83;;;16.10;99.90;;;;;;5035675;28;20544;-82
2022/08/16 00:09:22;;;;;;;26.97;25.47;;;16.00;99.90;;;;;;5034239;28;20199;-82
2022/08/16 00:11:48;;;;;;;23.73;21.93;;;16.00;99.90;;;;;;5033042;28;20255;-82
2022/08/16 00:14:20;;;;;;;33.20;31.37;;;16.00;99.90;;;;;;5034262;28;20218;-82
2022/08/16 00:16:47;;;;;;;39.23;37.03;;;16.00;99.90;;;;;;5036788;28;20198;-82
2022/08/16 00:19:26;;;;;;;24.23;22.83;;;15.90;99.90;;;;;;5045002;28;20230;-83
2022/08/16 00:21:53;;;;;;;24.77;23.37;;;16.00;99.90;;;;;;5035919;28;20240;-83
2022/08/16 00:24:20;;;;;;;26.70;25.27;;;16.00;99.90;;;;;;5034409;28;20670;-83
2022/08/16 00:26:45;;;;;;;46.60;43.93;;;16.00;99.90;;;;;;5033685;28;20241;-82
2022/08/16 00:29:14;;;;;;;45.30;42.73;;;16.00;99.90;;;;;;5034475;28;20191;-83
2022/08/16 00:31:41;;;;;;;33.30;31.30;;;16.00;99.90;;;;;;5032834;28;20187;-83
2022/08/16 00:34:07;;;;;;;26.80;25.37;;;16.00;99.90;;;;;;5034042;28;20611;-83
2022/08/16 00:36:33;;;;;;;17.80;16.27;;;16.00;99.90;;;;;;5033763;28;20660;-82
2022/08/16 00:39:00;;;;;;;18.47;17.03;;;16.00;99.90;;;;;;5032573;28;20289;-83
2022/08/16 00:41:28;;;;;;;25.33;23.93;;;16.00;99.90;;;;;;5034774;28;20206;-83
2022/08/16 00:43:53;;;;;;;19.70;18.43;;;15.90;99.90;;;;;;5035065;28;20191;-83
2022/08/16 00:46:21;;;;;;;22.97;21.47;;;15.90;99.90;;;;;;5038652;28;20273;-83
2022/08/16 00:48:49;;;;;;;37.90;35.63;;;15.90;99.90;;;;;;5038314;28;20186;-83
2022/08/16 00:51:17;;;;;;;22.60;21.07;;;15.80;99.90;;;;;;5039382;28;20285;-83
2022/08/16 00:53:45;;;;;;;18.53;17.13;;;15.80;99.90;;;;;;5039701;28;20202;-83
2022/08/16 00:56:16;;;;;;;27.97;26.17;;;15.80;99.90;;;;;;5051091;28;20186;-82
2022/08/16 00:58:45;;;;;;;19.53;18.03;;;15.70;99.90;;;;;;5049287;28;20215;-83
2022/08/16 01:01:11;;;;;;;23.87;22.17;;;15.70;99.90;;;;;;5036346;28;20205;-83
2022/08/16 01:03:40;;;;;;;22.33;20.70;;;15.70;99.90;;;;;;5037663;28;20203;-83
2022/08/16 01:06:06;;;;;;;18.47;17.00;;;15.70;99.90;;;;;;5035762;28;20214;-83
2022/08/16 01:08:35;;;;;;;21.80;20.40;;;15.70;99.90;;;;;;5034823;28;20191;-83
2022/08/16 01:11:01;;;;;;;21.60;20.40;;;15.70;99.90;;;;;;5037807;28;20194;-84
2022/08/16 01:13:30;;;;;;;21.23;19.63;;;15.70;99.90;;;;;;5035334;28;20313;-84
2022/08/16 01:16:02;;;;;;;22.53;20.83;;;15.70;99.90;;;;;;5035651;28;20194;-84
2022/08/16 01:18:37;;;;;;;21.23;20.00;;;15.80;99.90;;;;;;5035735;28;20210;-86
2022/08/16 01:21:20;;;;;;;23.10;21.73;;;15.80;99.90;;;;;;5039146;28;20171;-86
2022/08/16 01:24:04;;;;;;;29.83;28.10;;;15.70;99.90;;;;;;5038025;28;20199;-86
2022/08/16 01:26:32;;;;;;;26.23;24.73;;;15.70;99.90;;;;;;5033981;28;20171;-82
2022/08/16 01:29:03;;;;;;;20.27;18.73;;;15.70;99.90;;;;;;5041346;28;20206;-83
2022/08/16 01:31:29;;;;;;;32.97;31.10;;;15.70;99.90;;;;;;5035673;28;20179;-83
2022/08/16 01:33:55;;;;;;;32.20;30.20;;;15.70;99.90;;;;;;5035037;28;20205;-83
2022/08/16 01:36:21;;;;;;;25.77;24.13;;;15.70;99.90;;;;;;5034029;28;20190;-83
2022/08/16 01:38:48;;;;;;;46.43;43.90;;;15.70;99.90;;;;;;5034322;28;20207;-82
2022/08/16 01:41:19;;;;;;;20.00;18.80;;;15.80;99.90;;;;;;5041601;28;20183;-83
2022/08/16 01:43:46;;;;;;;22.87;21.23;;;15.80;99.90;;;;;;5037968;28;20626;-83
2022/08/16 01:46:30;;;;;;;24.07;22.60;;;15.80;99.90;;;;;;5037743;28;20179;-84
2022/08/16 01:49:00;;;;;;;33.97;32.10;;;15.70;99.90;;;;;;5038385;28;20270;-83
2022/08/16 01:51:27;;;;;;;28.43;26.63;;;15.70;99.90;;;;;;5037844;28;20220;-82
2022/08/16 01:53:53;;;;;;;24.33;22.77;;;15.70;99.90;;;;;;5037089;28;20551;-84
2022/08/16 01:56:21;;;;;;;25.93;24.23;;;15.70;99.90;;;;;;5036593;28;20745;-83
2022/08/16 01:58:47;;;;;;;28.17;26.03;;;15.60;99.90;;;;;;5039621;28;20203;-83
2022/08/16 02:01:13;;;;;;;24.00;22.37;;;15.60;99.90;;;;;;5047067;28;20210;-83
2022/08/16 02:03:39;;;;;;;22.57;20.87;;;15.50;99.90;;;;;;5039964;28;20671;-83
2022/08/16 02:06:06;;;;;;;24.50;23.10;;;15.50;99.90;;;;;;5038279;28;20179;-83
2022/08/16 02:08:33;;;;;;;23.57;22.17;;;15.50;99.90;;;;;;5038593;28;20206;-81
2022/08/16 02:11:01;;;;;;;24.03;22.13;;;15.40;99.90;;;;;;5044439;28;20187;-83
2022/08/16 02:13:27;;;;;;;19.10;17.83;;;15.40;99.90;;;;;;5044539;28;20225;-81
2022/08/16 02:15:53;;;;;;;22.23;20.60;;;15.40;99.90;;;;;;5040678;28;20320;-81
2022/08/16 02:18:18;;;;;;;22.00;20.63;;;15.30;99.90;;;;;;5038503;28;20238;-82
2022/08/16 02:20:49;;;;;;;21.53;20.33;;;15.30;99.90;;;;;;5040838;28;20180;-82
2022/08/16 02:23:17;;;;;;;26.33;24.50;;;15.30;99.90;;;;;;5047812;28;20285;-82
2022/08/16 02:25:43;;;;;;;23.30;21.83;;;15.30;99.90;;;;;;5050542;28;20179;-82
2022/08/16 02:28:09;;;;;;;48.80;46.17;;;15.30;99.90;;;;;;5048724;28;20194;-83
2022/08/16 02:30:35;;;;;;;56.37;53.17;;;15.30;99.90;;;;;;5038590;28;20179;-83
2022/08/16 02:33:03;;;;;;;20.33;18.93;;;15.30;99.90;;;;;;5038322;28;20345;-82
2022/08/16 02:35:29;;;;;;;29.30;27.07;;;15.30;99.90;;;;;;5037847;28;20380;-83
2022/08/16 02:37:56;;;;;;;34.40;32.17;;;15.30;99.90;;;;;;5035958;28;20206;-83
2022/08/16 02:40:23;;;;;;;41.90;39.60;;;15.30;99.90;;;;;;5037687;28;20182;-82
2022/08/16 02:42:50;;;;;;;23.17;21.77;;;15.20;99.90;;;;;;5037492;28;20182;-83
2022/08/16 02:45:18;;;;;;;20.90;19.40;;;15.20;99.90;;;;;;5036304;28;20203;-83
2022/08/16 02:47:44;;;;;;;26.30;24.53;;;15.20;99.90;;;;;;5035012;28;20187;-82
2022/08/16 02:50:10;;;;;;;23.57;22.07;;;15.20;99.90;;;;;;5035774;28;20183;-82
2022/08/16 02:52:35;;;;;;;31.93;30.20;;;15.30;99.90;;;;;;5035786;28;20208;-82
2022/08/16 02:55:01;;;;;;;25.73;24.03;;;15.30;99.90;;;;;;5037098;28;20175;-82
2022/08/16 02:57:27;;;;;;;24.63;23.13;;;15.30;99.90;;;;;;5037561;28;20179;-82
2022/08/16 02:59:53;;;;;;;27.33;25.63;;;15.20;99.90;;;;;;5037667;28;20692;-81
2022/08/16 03:02:19;;;;;;;24.33;22.47;;;15.20;99.90;;;;;;5037919;28;20184;-83
2022/08/16 03:04:45;;;;;;;25.77;24.13;;;15.20;99.90;;;;;;5037839;28;20258;-82
2022/08/16 03:07:11;;;;;;;21.13;19.70;;;15.10;99.90;;;;;;5044866;28;20175;-84
2022/08/16 03:09:38;;;;;;;30.13;28.37;;;15.10;99.90;;;;;;5051164;28;20183;-85
2022/08/16 03:12:05;;;;;;;39.90;37.63;;;15.10;99.90;;;;;;5038356;28;20194;-86
2022/08/16 03:14:31;;;;;;;42.70;39.93;;;15.00;99.90;;;;;;5046791;23;20310;-75
2022/08/16 03:16:58;;;;;;;39.33;36.80;;;15.00;99.90;;;;;;5015088;28;20233;-77
2022/08/16 03:19:25;;;;;;;52.03;49.27;;;15.00;99.90;;;;;;5015054;28;20265;-77
2022/08/16 03:21:51;;;;;;;57.27;54.10;;;15.00;99.90;;;;;;5013402;28;20194;-75
2022/08/16 03:24:17;;;;;;;38.57;36.43;;;15.10;99.90;;;;;;5001811;28;20192;-77
2022/08/16 03:26:43;;;;;;;42.57;40.27;;;15.10;99.90;;;;;;4991506;28;20185;-77
2022/08/16 03:29:10;;;;;;;39.63;37.13;;;15.00;99.90;;;;;;4973639;28;20184;-77
2022/08/16 03:31:37;;;;;;;32.30;30.37;;;15.00;99.90;;;;;;4973797;28;20208;-74
2022/08/16 03:34:03;;;;;;;29.90;28.13;;;14.90;99.90;;;;;;4975013;28;20463;-77
2022/08/16 03:36:29;;;;;;;27.03;25.47;;;14.90;99.90;;;;;;4976253;28;20778;-77
2022/08/16 03:38:55;;;;;;;32.00;30.00;;;14.90;99.90;;;;;;4995438;28;20229;-78
2022/08/16 03:41:22;;;;;;;36.30;34.17;;;14.90;99.90;;;;;;4993635;28;20176;-75
2022/08/16 03:43:48;;;;;;;36.73;34.60;;;14.80;99.90;;;;;;4994745;28;20204;-75
2022/08/16 03:46:14;;;;;;;60.00;56.00;;;14.80;99.90;;;;;;5009902;28;20181;-75
2022/08/16 03:48:41;;;;;;;99.73;94.37;;;14.80;99.90;;;;;;4979137;28;20295;-78
2022/08/16 03:51:10;;;;;;;89.33;84.00;;;14.80;99.90;;;;;;4983260;28;20185;-78
2022/08/16 03:53:36;;;;;;;90.43;85.03;;;14.80;99.90;;;;;;4974739;28;20201;-75
2022/08/16 03:56:02;;;;;;;122.90;116.03;;;14.80;99.90;;;;;;4976229;28;20287;-77
2022/08/16 03:58:28;;;;;;;180.43;170.63;;;14.90;99.90;;;;;;4976183;28;20579;-76
2022/08/16 04:00:54;;;;;;;172.23;163.00;;;14.80;99.90;;;;;;4983965;28;20177;-73
2022/08/16 04:03:21;;;;;;;103.07;97.03;;;14.80;99.90;;;;;;4973246;28;20735;-71
2022/08/16 04:05:49;;;;;;;102.33;96.13;;;14.80;99.90;;;;;;4973708;28;20181;-73
2022/08/16 04:08:18;;;;;;;33.13;30.73;;;14.80;99.90;;;;;;4976382;28;21146;-77
2022/08/16 04:10:44;;;;;;;164.07;155.20;;;14.70;99.90;;;;;;4976154;28;20184;-75
2022/08/16 04:13:10;;;;;;;231.07;218.20;;;14.80;99.90;;;;;;4976054;28;20185;-76
2022/08/16 04:15:37;;;;;;;195.23;184.57;;;14.80;99.90;;;;;;4973846;28;20677;-77
2022/08/16 04:18:04;;;;;;;160.47;152.07;;;14.70;99.90;;;;;;4981375;28;20199;-76
2022/08/16 04:20:30;;;;;;;195.07;184.40;;;14.80;99.90;;;;;;4993015;28;20240;-76
2022/08/16 04:22:56;;;;;;;212.43;201.07;;;14.70;99.90;;;;;;4984002;28;20189;-76
2022/08/16 04:25:22;;;;;;;158.43;149.80;;;14.80;99.90;;;;;;4981522;28;20185;-76
2022/08/16 04:27:48;;;;;;;174.53;164.73;;;14.80;99.90;;;;;;4978533;28;20622;-76
2022/08/16 04:30:17;;;;;;;112.73;104.83;;;14.80;99.90;;;;;;4978577;28;20494;-76
2022/08/16 04:32:43;;;;;;;105.37;98.67;;;14.90;99.90;;;;;;4978149;28;20185;-76
2022/08/16 04:35:14;;;;;;;84.17;78.43;;;14.90;99.90;;;;;;4979059;28;20228;-76
2022/08/16 04:37:41;;;;;;;78.17;72.83;;;15.00;99.90;;;;;;4979068;28;20650;-75
2022/08/16 04:40:09;;;;;;;92.30;87.17;;;15.00;99.90;;;;;;4975877;28;20642;-76
2022/08/16 04:42:38;;;;;;;92.23;86.70;;;15.00;99.90;;;;;;4976683;28;20181;-76
2022/08/16 04:45:05;;;;;;;111.90;105.80;;;15.00;99.90;;;;;;4976105;28;20201;-77
2022/08/16 04:47:33;;;;;;;340.57;321.13;;;15.10;99.90;;;;;;4976533;28;20180;-77
2022/08/16 04:50:02;;;;;;;188.87;177.70;;;15.10;99.90;;;;;;4959983;28;20654;-76
2022/08/16 04:52:28;;;;;;;245.70;231.50;;;15.00;99.90;;;;;;4976165;28;20181;-77
2022/08/16 04:54:55;;;;;;;293.60;276.73;;;15.10;99.90;;;;;;4976656;28;20213;-74
2022/08/16 04:57:22;;;;;;;290.77;274.53;;;15.10;99.90;;;;;;4982151;28;20689;-77
2022/08/16 04:59:48;;;;;;;329.43;310.10;;;15.20;99.90;;;;;;4973625;28;20212;-77
2022/08/16 05:02:13;;;;;;;315.87;298.57;;;15.20;99.90;;;;;;5001523;28;20184;-75
2022/08/16 05:04:40;;;;;;;195.57;184.63;;;15.20;99.90;;;;;;4995025;28;20192;-75
2022/08/16 05:07:06;;;;;;;47.50;44.90;;;15.40;99.90;;;;;;4993423;28;20276;-75
2022/08/16 05:09:31;;;;;;;12.03;11.17;;;15.40;99.90;;;;;;4995098;28;20339;-75
2022/08/16 05:11:57;;;;;;;10.17;9.27;;;15.50;99.90;;;;;;4994962;28;20551;-76
2022/08/16 05:14:23;;;;;;;24.43;22.80;;;15.70;99.90;;;;;;4995233;28;20220;-76
2022/08/16 05:16:49;;;;;;;13.57;12.67;;;15.80;99.90;;;;;;4994386;28;20187;-77
2022/08/16 05:19:16;;;;;;;10.10;9.50;;;15.90;99.90;;;;;;4997586;28;20212;-76
2022/08/16 05:21:41;;;;;;;53.30;50.40;;;16.30;99.90;;;;;;4996498;28;20184;-76
2022/08/16 05:24:08;;;;;;;16.03;14.43;;;16.80;99.90;;;;;;4997780;28;20227;-75
2022/08/16 05:26:36;;;;;;;13.63;12.77;;;17.40;99.90;;;;;;4997856;28;20215;-74
2022/08/16 05:29:04;;;;;;;24.67;23.33;;;17.90;99.90;;;;;;4997351;28;20645;-75
2022/08/16 05:31:30;;;;;;;41.07;38.97;;;18.10;99.90;;;;;;4998239;28;20184;-75
2022/08/16 05:34:01;;;;;;;11.70;11.07;;;18.70;99.90;;;;;;4996598;28;20204;-75
2022/08/16 05:36:27;;;;;;;9.23;8.53;;;19.20;99.90;;;;;;4997180;28;20211;-75
2022/08/16 05:38:53;;;;;;;22.20;20.93;;;19.50;99.90;;;;;;4995220;28;20281;-76
2022/08/16 05:41:19;;;;;;;36.00;34.00;;;19.80;99.90;;;;;;4993675;28;20709;-76
2022/08/16 05:43:45;;;;;;;92.55;87.78;;;20.00;99.90;;;;;;4996258;28;20283;-76
2022/08/16 05:46:12;;;;;;;64.18;60.88;;;20.10;99.90;;;;;;4995453;28;20181;-76
2022/08/16 05:48:37;;;;;;;38.70;36.50;;;20.00;99.90;;;;;;4993682;28;20234;-76
2022/08/16 05:51:03;;;;;;;46.33;43.88;;;19.70;99.90;;;;;;4994260;28;20188;-76
2022/08/16 05:53:30;;;;;;;42.83;40.28;;;19.50;99.90;;;;;;4995267;28;20211;-76
2022/08/16 05:55:55;;;;;;;69.67;66.07;;;19.30;99.90;;;;;;4994749;28;20188;-76
2022/08/16 05:58:21;;;;;;;74.93;70.93;;;19.00;99.90;;;;;;4994746;28;20216;-76
2022/08/16 06:00:47;;;;;;;115.23;109.43;;;18.90;99.90;;;;;;4995339;28;20180;-76
2022/08/16 06:03:13;;;;;;;99.93;94.80;;;18.80;99.90;;;;;;5008915;28;20197;-75
2022/08/16 06:05:39;;;;;;;10.67;9.67;;;18.60;99.90;;;;;;5004162;28;20234;-76
2022/08/16 06:08:04;;;;;;;9.00;8.43;;;18.60;99.90;;;;;;4995431;28;20189;-76
2022/08/16 06:10:30;;;;;;;10.27;9.27;;;18.50;99.90;;;;;;4994222;28;20181;-76
2022/08/16 06:12:56;;;;;;;11.63;10.80;;;18.60;99.90;;;;;;4995040;28;20193;-76
2022/08/16 06:15:22;;;;;;;12.07;10.87;;;18.60;99.90;;;;;;4995257;28;20191;-76
2022/08/16 06:17:48;;;;;;;24.80;23.30;;;18.60;99.90;;;;;;4994127;28;20187;-76
2022/08/16 06:20:19;;;;;;;11.23;10.43;;;18.70;99.90;;;;;;4995072;28;20668;-76
2022/08/16 06:22:45;;;;;;;20.83;19.70;;;19.10;99.90;;;;;;4994849;28;20180;-76
2022/08/16 06:25:12;;;;;;;74.07;70.37;;;19.50;99.90;;;;;;4995261;28;20197;-76
2022/08/16 06:27:38;;;;;;;66.63;63.28;;;19.80;99.90;;;;;;4993275;28;20195;-76
2022/08/16 06:30:07;;;;;;;124.13;117.57;;;20.00;99.90;;;;;;4995854;28;20583;-76
2022/08/16 06:32:33;;;;;;;53.47;50.78;;;20.30;99.90;;;;;;4995315;28;20795;-77
2022/08/16 06:34:59;;;;;;;20.63;19.52;;;20.90;99.90;;;;;;4994826;28;20196;-77
2022/08/16 06:37:25;;;;;;;10.68;9.98;;;21.10;99.90;;;;;;4994075;28;20184;-77
2022/08/16 06:39:50;;;;;;;25.10;23.45;;;21.70;99.90;;;;;;4993416;28;20234;-77
2022/08/16 06:42:17;;;;;;;18.80;17.50;;;22.30;99.90;;;;;;4993512;28;20180;-77
2022/08/16 06:44:43;;;;;;;34.63;32.55;;;22.40;99.90;;;;;;4994720;28;20419;-77
2022/08/16 06:47:09;;;;;;;127.90;121.72;;;22.60;99.90;;;;;;4992662;28;20208;-77
2022/08/16 06:49:35;;;;;;;113.72;108.00;;;23.00;99.90;;;;;;4993317;28;20191;-76
2022/08/16 06:52:00;;;;;;;93.18;88.30;;;23.30;99.90;;;;;;4994547;28;20235;-76
2022/08/16 06:54:26;;;;;;;48.28;45.83;;;23.60;99.90;;;;;;4994273;28;20223;-77
2022/08/16 06:56:52;;;;;;;18.75;17.70;;;24.30;99.90;;;;;;4996595;28;20657;-77
2022/08/16 06:59:18;;;;;;;11.52;10.68;;;24.80;99.90;;;;;;4994930;28;20304;-77
2022/08/16 07:01:44;;;;;;;22.13;21.00;;;24.90;99.90;;;;;;4994885;28;20208;-76
2022/08/16 07:04:09;;;;;;;14.20;13.40;;;25.30;99.90;;;;;;4994500;28;20195;-76
2022/08/16 07:06:35;;;;;;;15.98;15.00;;;25.70;99.90;;;;;;4993127;28;20263;-76
2022/08/16 07:09:01;;;;;;;17.33;16.30;;;26.00;99.90;;;;;;4992346;28;20254;-77
2022/08/16 07:11:27;;;;;;;11.60;10.82;;;26.00;99.90;;;;;;4993023;28;20180;-77
2022/08/16 07:13:54;;;;;;;7.88;7.28;;;26.20;99.90;;;;;;4992591;28;20224;-77
2022/08/16 07:16:20;;;;;;;7.20;6.53;;;26.40;99.90;;;;;;4993362;28;20188;-77
2022/08/16 07:18:46;;;;;;;6.88;6.30;;;26.60;99.90;;;;;;4993541;28;20211;-77
2022/08/16 07:21:14;;;;;;;8.20;7.57;;;27.10;99.90;;;;;;4992986;28;20270;-77
2022/08/16 07:23:40;;;;;;;7.53;6.90;;;27.10;99.90;;;;;;4992776;28;20201;-77
2022/08/16 07:26:09;;;;;;;8.35;7.65;;;27.20;99.90;;;;;;4992748;28;20188;-76
2022/08/16 07:28:35;;;;;;;9.02;8.38;;;27.20;99.90;;;;;;4992862;28;20199;-77
2022/08/16 07:31:02;;;;;;;8.18;7.68;;;27.30;99.90;;;;;;4993696;28;20564;-77
2022/08/16 07:33:29;;;;;;;12.20;11.18;;;27.50;99.90;;;;;;4993315;28;20206;-77
2022/08/16 07:35:57;;;;;;;13.20;12.27;;;27.70;99.90;;;;;;4992727;28;20274;-77
2022/08/16 07:38:26;;;;;;;13.98;13.10;;;27.50;99.90;;;;;;4991502;28;20220;-75
2022/08/16 07:40:56;;;;;;;10.93;9.95;;;27.60;99.90;;;;;;4991811;28;20188;-75
2022/08/16 07:43:23;;;;;;;7.95;7.15;;;27.80;99.90;;;;;;5003515;28;20184;-74
2022/08/16 07:45:50;;;;;;;7.28;6.68;;;27.70;99.90;;;;;;5005265;28;20189;-74
2022/08/16 07:48:16;;;;;;;6.30;5.90;;;27.80;99.90;;;;;;4991974;28;20184;-74
2022/08/16 07:50:42;;;;;;;5.72;5.38;;;27.80;99.90;;;;;;4993775;28;20176;-75
2022/08/16 07:53:08;;;;;;;5.85;5.40;;;28.00;99.90;;;;;;4995028;28;20560;-75
2022/08/16 07:55:35;;;;;;;7.00;5.80;;;28.20;99.90;;;;;;4992429;28;20275;-75
2022/08/16 07:58:01;;;;;;;5.93;5.43;;;28.30;99.90;;;;;;4992393;28;20584;-75
2022/08/16 08:00:27;;;;;;;6.78;6.28;;;28.10;99.90;;;;;;4991852;28;20177;-75
2022/08/16 08:02:54;;;;;;;6.32;5.70;;;28.30;99.90;;;;;;4991797;28;20246;-75
2022/08/16 08:05:22;;;;;;;5.82;5.30;;;28.60;99.90;;;;;;4993205;28;20263;-75
2022/08/16 08:07:48;;;;;;;5.78;5.38;;;28.80;99.90;;;;;;4992354;28;20688;-75
2022/08/16 08:10:14;;;;;;;6.03;5.10;;;28.40;99.90;;;;;;4993172;28;20176;-75
2022/08/16 08:12:42;;;;;;;7.75;7.05;;;28.50;99.90;;;;;;4991769;28;20546;-75
2022/08/16 08:15:10;;;;;;;10.45;9.70;;;28.80;99.90;;;;;;4992915;28;20246;-78
2022/08/16 08:17:38;;;;;;;15.32;14.38;;;29.00;99.90;;;;;;4992411;28;20204;-76
2022/08/16 08:20:06;;;;;;;15.20;14.20;;;29.30;99.90;;;;;;4991716;28;20198;-75
2022/08/16 08:22:33;;;;;;;13.27;12.35;;;29.10;98.90;;;;;;4991644;28;20200;-75
2022/08/16 08:24:59;;;;;;;13.23;12.23;;;28.80;99.90;;;;;;4992699;28;20287;-75
2022/08/16 08:27:25;;;;;;;13.05;12.02;;;29.00;99.30;;;;;;4990783;28;20183;-75
2022/08/16 08:29:51;;;;;;;14.02;13.18;;;29.20;98.50;;;;;;4991846;28;20184;-76
2022/08/16 08:32:19;;;;;;;14.75;13.68;;;29.00;97.50;;;;;;4996765;28;20271;-75
2022/08/16 08:34:45;;;;;;;13.13;12.15;;;29.00;97.90;;;;;;4994358;28;20323;-75
2022/08/16 08:37:11;;;;;;;10.98;10.35;;;29.40;98.30;;;;;;4990978;28;20295;-76
2022/08/16 08:39:37;;;;;;;9.32;7.82;;;29.50;96.20;;;;;;4992916;28;20208;-76
2022/08/16 08:42:11;;;;;;;8.02;7.57;;;29.80;94.90;;;;;;4976156;28;20196;-76
2022/08/16 08:44:37;;;;;;;10.60;9.90;;;29.90;94.60;;;;;;4991586;28;20627;-76
2022/08/16 08:47:05;;;;;;;11.20;9.50;;;29.80;94.60;;;;;;4991114;28;20267;-75
2022/08/16 08:49:32;;;;;;;11.13;10.45;;;30.10;93.60;;;;;;4992675;28;20184;-76
2022/08/16 08:51:58;;;;;;;10.60;9.80;;;30.60;92.90;;;;;;4991441;28;20187;-76
2022/08/16 08:54:25;;;;;;;17.27;16.15;;;30.70;91.90;;;;;;4992606;28;20298;-76
2022/08/16 08:56:52;;;;;;;12.20;11.30;;;30.90;92.20;;;;;;4992867;28;20180;-76
2022/08/16 08:59:18;;;;;;;15.55;14.50;;;30.70;92.10;;;;;;4991607;28;20212;-76
2022/08/16 09:01:46;;;;;;;14.98;14.10;;;30.40;92.50;;;;;;4991736;28;20180;-76
2022/08/16 09:04:12;;;;;;;20.35;19.10;;;29.70;91.90;;;;;;4992365;28;20686;-76
2022/08/16 09:06:40;;;;;;;18.30;16.83;;;29.80;92.90;;;;;;4991478;28;20191;-75
2022/08/16 09:09:08;;;;;;;13.13;12.32;;;30.00;93.00;;;;;;4994657;28;20279;-76
2022/08/16 09:11:35;;;;;;;12.65;11.93;;;30.30;92.40;;;;;;4995164;28;20184;-75
2022/08/16 09:14:01;;;;;;;18.13;16.90;;;30.50;89.60;;;;;;5025659;23;20222;-80
2022/08/16 09:16:27;;;;;;;9.57;8.77;;;30.90;90.90;;;;;;5040349;28;20183;-80
2022/08/16 09:18:52;;;;;;;8.43;7.72;;;31.00;87.00;;;;;;5036171;28;20246;-79
2022/08/16 09:21:19;;;;;;;24.35;22.83;;;31.10;87.70;;;;;;5034895;28;20214;-79
2022/08/16 09:23:45;;;;;;;44.58;42.20;;;31.00;90.10;;;;;;5034674;28;20622;-79
2022/08/16 09:26:14;;;;;;;17.85;16.80;;;30.50;90.70;;;;;;5034991;28;20179;-79
2022/08/16 09:28:41;;;;;;;14.70;13.93;;;30.40;86.70;;;;;;5031592;28;20183;-80
2022/08/16 09:31:08;;;;;;;27.60;25.80;;;30.40;87.60;;;;;;5032308;28;20228;-79
2022/08/16 09:33:34;;;;;;;8.60;7.82;;;30.50;89.40;;;;;;5032564;28;20277;-80
2022/08/16 09:36:00;;;;;;;23.00;21.55;;;30.80;84.20;;;;;;5033849;28;20187;-80
2022/08/16 09:38:26;;;;;;;9.43;7.15;;;31.00;86.60;;;;;;5031987;28;20535;-79
2022/08/16 09:40:55;;;;;;;8.50;7.80;;;30.90;82.80;;;;;;5032872;28;20309;-80
2022/08/16 09:43:22;;;;;;;10.20;9.25;;;31.00;82.90;;;;;;5033579;28;20298;-81
2022/08/16 09:45:48;;;;;;;9.32;8.63;;;31.30;84.90;;;;;;5033791;28;20171;-81
2022/08/16 09:48:14;;;;;;;8.52;7.82;;;31.80;81.70;;;;;;5032654;28;20193;-80
2022/08/16 09:50:42;;;;;;;7.93;7.25;;;31.50;76.80;;;;;;5033978;28;20576;-80
2022/08/16 09:53:12;;;;;;;7.82;7.22;;;31.50;79.00;;;;;;5034481;28;20703;-80
2022/08/16 09:55:39;;;;;;;6.28;5.85;;;31.50;77.90;;;;;;5035029;28;20213;-81
2022/08/16 09:58:05;;;;;;;7.97;7.40;;;31.80;75.60;;;;;;5032997;28;20313;-80
2022/08/16 10:00:31;;;;;;;9.88;8.38;;;31.60;77.60;;;;;;5034555;28;20211;-80
2022/08/16 10:02:57;;;;;;;6.82;6.30;;;31.50;78.80;;;;;;5033085;28;20179;-81
2022/08/16 10:05:24;;;;;;;7.97;7.38;;;31.50;74.80;;;;;;5036078;28;20290;-81
2022/08/16 10:07:53;;;;;;;7.40;6.90;;;32.00;76.50;;;;;;5035892;28;20558;-81
2022/08/16 10:10:21;;;;;;;7.18;5.82;;;32.50;73.30;;;;;;5039972;28;20178;-81
2022/08/16 10:15:32;;;;;;;12.40;11.63;;;32.60;73.90;;;;;;5036980;28;20705;-81
2022/08/16 10:17:59;;;;;;;19.90;18.60;;;32.60;72.30;;;;;;5035186;28;20249;-83
2022/08/16 10:20:26;;;;;;;15.85;14.63;;;33.00;69.20;;;;;;5037012;28;20218;-82
2022/08/16 10:22:53;;;;;;;10.52;9.88;;;33.30;68.70;;;;;;5036714;28;20640;-82
2022/08/16 10:25:20;;;;;;;10.10;9.40;;;33.70;68.00;;;;;;5037879;28;20210;-82
2022/08/16 10:27:47;;;;;;;9.95;9.18;;;33.30;68.30;;;;;;5038228;28;20175;-82
2022/08/16 10:30:14;;;;;;;8.02;7.38;;;32.80;69.30;;;;;;5037813;28;20648;-82
2022/08/16 10:32:41;;;;;;;10.98;10.38;;;32.10;69.10;;;;;;5036447;28;20221;-82
2022/08/16 10:35:07;;;;;;;24.55;23.15;;;31.40;70.20;;;;;;5036700;28;20207;-82
2022/08/16 10:37:33;;;;;;;19.15;18.05;;;31.00;73.70;;;;;;5034619;28;20206;-82
2022/08/16 10:40:00;;;;;;;12.65;11.80;;;30.70;75.20;;;;;;5036108;28;20218;-82
2022/08/16 10:42:27;;;;;;;8.52;7.93;;;30.30;74.80;;;;;;5036042;28;20205;-82
2022/08/16 10:44:53;;;;;;;7.85;7.15;;;30.30;77.90;;;;;;5037273;28;20195;-81
2022/08/16 10:47:18;;;;;;;8.90;8.00;;;30.10;77.70;;;;;;5050300;28;20206;-82
2022/08/16 10:49:44;;;;;;;21.85;20.40;;;29.70;78.00;;;;;;5043103;28;20179;-82
2022/08/16 10:52:10;;;;;;;15.57;14.70;;;29.60;79.90;;;;;;5040106;28;20563;-82
2022/08/16 10:54:36;;;;;;;15.45;14.65;;;29.70;79.10;;;;;;5040906;28;20219;-82
2022/08/16 10:57:04;;;;;;;14.85;13.60;;;29.80;79.10;;;;;;5038567;28;20179;-82
2022/08/16 10:59:32;;;;;;;13.88;12.65;;;29.70;79.10;;;;;;5036800;28;20215;-82
2022/08/16 11:01:58;;;;;;;13.38;12.50;;;29.40;79.90;;;;;;5037110;28;20171;-81
2022/08/16 11:04:25;;;;;;;14.55;13.75;;;29.60;80.90;;;;;;5054037;28;20202;-81
2022/08/16 11:06:51;;;;;;;12.45;11.85;;;29.70;79.80;;;;;;5052293;28;20244;-82
2022/08/16 11:09:17;;;;;;;15.02;14.02;;;30.10;79.20;;;;;;5053067;28;20218;-81
2022/08/16 11:11:44;;;;;;;14.93;13.75;;;30.10;79.50;;;;;;5043289;28;20184;-81
2022/08/16 11:14:11;;;;;;;13.73;12.93;;;29.90;77.60;;;;;;5034936;28;20222;-81
2022/08/16 11:16:37;;;;;;;14.15;13.30;;;30.10;76.70;;;;;;5035715;28;20689;-81
2022/08/16 11:19:05;;;;;;;14.75;13.68;;;30.50;78.70;;;;;;5034985;28;20218;-83
2022/08/16 11:21:31;;;;;;;11.05;10.45;;;30.70;78.10;;;;;;5037398;28;20171;-81
2022/08/16 11:23:57;;;;;;;11.90;9.93;;;30.50;75.70;;;;;;5035322;28;20245;-81
2022/08/16 11:26:23;;;;;;;8.80;8.07;;;30.60;74.70;;;;;;5039652;28;20175;-81
2022/08/16 11:28:49;;;;;;;7.88;7.38;;;30.60;72.20;;;;;;5034568;28;20214;-80
2022/08/16 11:31:16;;;;;;;9.02;8.18;;;30.90;72.00;;;;;;5035355;28;20178;-82
2022/08/16 11:33:43;;;;;;;16.30;15.27;;;31.70;74.10;;;;;;5040127;28;20203;-82
2022/08/16 11:36:09;;;;;;;21.92;20.65;;;32.20;68.50;;;;;;5040022;28;20178;-81
2022/08/16 11:38:35;;;;;;;17.13;16.00;;;32.20;66.10;;;;;;5038065;28;20219;-82
2022/08/16 11:41:02;;;;;;;20.23;19.20;;;31.90;67.00;;;;;;5034905;28;20179;-82
2022/08/16 11:43:32;;;;;;;20.95;19.70;;;31.70;69.40;;;;;;5035900;28;20190;-82
2022/08/16 11:46:02;;;;;;;18.90;17.42;;;31.30;69.50;;;;;;5035446;28;20187;-82
2022/08/16 11:48:32;;;;;;;16.75;15.48;;;31.30;71.20;;;;;;5041664;28;20186;-81
2022/08/16 11:50:59;;;;;;;11.93;11.25;;;30.90;70.40;;;;;;5047242;28;20183;-82
2022/08/16 11:53:27;;;;;;;11.98;11.05;;;30.70;70.80;;;;;;5050219;28;20314;-81
2022/08/16 11:55:54;;;;;;;6.60;6.10;;;30.40;71.30;;;;;;5050017;28;20671;-81
2022/08/16 11:58:22;;;;;;;6.60;5.75;;;30.70;73.10;;;;;;5048711;28;20207;-82
2022/08/16 12:00:48;;;;;;;13.65;12.85;;;31.50;71.90;;;;;;5042937;28;20187;-82
2022/08/16 12:03:15;;;;;;;13.27;12.52;;;32.60;70.60;;;;;;5045098;28;20190;-82
2022/08/16 12:05:43;;;;;;;11.73;10.93;;;33.10;65.90;;;;;;5034712;28;20191;-83
2022/08/16 12:08:10;;;;;;;7.10;6.70;;;33.60;66.20;;;;;;5034030;28;20236;-82
2022/08/16 12:10:39;;;;;;;128.57;122.35;;;34.50;62.90;;;;;;5037735;28;20194;-83
2022/08/16 12:13:08;;;;;;;362.65;343.33;;;35.30;59.40;;;;;;5036343;28;20245;-83
2022/08/16 12:15:35;;;;;;;410.40;388.08;;;36.00;59.30;;;;;;5041522;28;20249;-83
2022/08/16 12:18:02;;;;;;;348.48;330.38;;;36.40;55.80;;;;;;5050558;28;20191;-83
2022/08/16 12:20:32;;;;;;;383.02;362.00;;;36.40;54.20;;;;;;5038451;28;20245;-82
2022/08/16 12:22:58;;;;;;;318.77;302.77;;;36.30;56.40;;;;;;5038208;28;20175;-81
2022/08/16 12:25:27;;;;;;;391.85;371.15;;;36.70;52.70;;;;;;5037818;28;20234;-81
2022/08/16 12:27:54;;;;;;;239.35;227.43;;;36.80;54.60;;;;;;5035843;28;20175;-82
2022/08/16 12:30:25;;;;;;;330.90;313.40;;;35.70;53.20;;;;;;5034120;28;20183;-82